Terminal Aerodrome Forecast
Issued by NWS

Home | Current Version | Previous Version | Graphics & Text | Print | Product List | Glossary On
Versions: 1 2 3 4 5 6 7 8 9 10 11 12 13 14 15 16 17 18 19
405
FTUS43 KGRB 220520
TAFMTW
TAF
KMTW 220520Z 2206/2306 17008KT P6SM OVC050 WS019/26040KT
      TEMPO 2206/2210 2SM TSRA BKN022CB
     FM221000 21008KT 6SM -SHRA BR BKN045 WS017/27030KT
     FM221400 24011G18KT P6SM BKN045
     FM221600 25013G19KT P6SM BKN050
     FM222100 24009KT P6SM TSRA BKN050CB PROB30 2221/2301 1SM TSRA
      BKN022CB
     FM230100 VRB03KT 6SM -SHRA SCT030 BKN040
     FM230400 VRB03KT P6SM SCT040 BKN070=

USA.gov is the U.S. government's official web portal to all federal, state and local government web resources and services.